sensor_id;sensor_type;location;lat;lon;timestamp;P1;durP1;ratioP1;P2;durP2;ratioP2
39276;SDS011;63149;48.086;-1.606;2023-05-19T05:02:33;16.50;;;6.47;;
39276;SDS011;63149;48.086;-1.606;2023-05-19T05:05:01;20.92;;;8.15;;
39276;SDS011;63149;48.086;-1.606;2023-05-19T05:07:28;15.00;;;7.72;;
39276;SDS011;63149;48.086;-1.606;2023-05-19T05:09:55;12.80;;;7.00;;
39276;SDS011;63149;48.086;-1.606;2023-05-19T05:12:23;12.98;;;7.45;;
39276;SDS011;63149;48.086;-1.606;2023-05-19T05:14:50;16.15;;;6.75;;
39276;SDS011;63149;48.086;-1.606;2023-05-19T05:17:18;17.30;;;7.13;;
39276;SDS011;63149;48.086;-1.606;2023-05-19T05:19:47;14.25;;;6.68;;
39276;SDS011;63149;48.086;-1.606;2023-05-19T05:22:15;18.08;;;7.75;;
39276;SDS011;63149;48.086;-1.606;2023-05-19T05:24:42;14.52;;;7.07;;
39276;SDS011;63149;48.086;-1.606;2023-05-19T05:27:10;16.20;;;6.93;;
39276;SDS011;63149;48.086;-1.606;2023-05-19T05:29:37;16.98;;;7.60;;
39276;SDS011;63149;48.086;-1.606;2023-05-19T05:32:05;16.95;;;6.60;;
39276;SDS011;63149;48.086;-1.606;2023-05-19T05:34:33;19.25;;;6.55;;
39276;SDS011;63149;48.086;-1.606;2023-05-19T05:37:03;13.10;;;6.22;;
39276;SDS011;63149;48.086;-1.606;2023-05-19T05:39:30;14.05;;;6.78;;
39276;SDS011;63149;48.086;-1.606;2023-05-19T05:41:58;13.07;;;6.68;;
39276;SDS011;63149;48.086;-1.606;2023-05-19T05:44:25;13.85;;;6.50;;
39276;SDS011;63149;48.086;-1.606;2023-05-19T05:46:52;21.40;;;6.53;;
39276;SDS011;63149;48.086;-1.606;2023-05-19T05:49:20;14.05;;;6.00;;
39276;SDS011;63149;48.086;-1.606;2023-05-19T05:51:47;19.25;;;6.65;;
39276;SDS011;63149;48.086;-1.606;2023-05-19T05:54:17;16.23;;;7.00;;
39276;SDS011;63149;48.086;-1.606;2023-05-19T05:56:45;16.67;;;7.57;;
39276;SDS011;63149;48.086;-1.606;2023-05-19T05:59:12;15.35;;;6.18;;
39276;SDS011;63149;48.086;-1.606;2023-05-19T06:01:40;14.10;;;6.75;;
39276;SDS011;63149;48.086;-1.606;2023-05-19T06:04:08;16.88;;;7.00;;
39276;SDS011;63149;48.086;-1.606;2023-05-19T06:06:35;18.08;;;6.90;;
39276;SDS011;63149;48.086;-1.606;2023-05-19T06:09:03;20.40;;;7.18;;
39276;SDS011;63149;48.086;-1.606;2023-05-19T06:11:31;14.77;;;6.47;;
39276;SDS011;63149;48.086;-1.606;2023-05-19T06:13:59;19.65;;;7.07;;
39276;SDS011;63149;48.086;-1.606;2023-05-19T06:16:26;13.00;;;6.50;;
39276;SDS011;63149;48.086;-1.606;2023-05-19T06:18:53;14.55;;;6.72;;
39276;SDS011;63149;48.086;-1.606;2023-05-19T06:21:20;17.70;;;6.72;;
39276;SDS011;63149;48.086;-1.606;2023-05-19T06:23:48;16.40;;;7.05;;
39276;SDS011;63149;48.086;-1.606;2023-05-19T06:26:15;22.38;;;8.10;;
39276;SDS011;63149;48.086;-1.606;2023-05-19T06:28:44;14.25;;;7.38;;
39276;SDS011;63149;48.086;-1.606;2023-05-19T06:31:11;15.88;;;6.38;;
39276;SDS011;63149;48.086;-1.606;2023-05-19T06:33:38;17.40;;;6.78;;
39276;SDS011;63149;48.086;-1.606;2023-05-19T06:36:06;15.82;;;7.30;;
39276;SDS011;63149;48.086;-1.606;2023-05-19T06:38:34;18.15;;;7.22;;
39276;SDS011;63149;48.086;-1.606;2023-05-19T06:41:01;15.73;;;7.50;;
39276;SDS011;63149;48.086;-1.606;2023-05-19T06:43:28;18.67;;;8.00;;
39276;SDS011;63149;48.086;-1.606;2023-05-19T06:45:57;15.10;;;7.80;;
39276;SDS011;63149;48.086;-1.606;2023-05-19T06:48:24;14.77;;;7.15;;
39276;SDS011;63149;48.086;-1.606;2023-05-19T06:50:52;18.98;;;6.95;;
39276;SDS011;63149;48.086;-1.606;2023-05-19T06:53:19;18.52;;;7.47;;
39276;SDS011;63149;48.086;-1.606;2023-05-19T06:55:46;17.77;;;7.47;;
39276;SDS011;63149;48.086;-1.606;2023-05-19T06:58:15;16.48;;;7.28;;
39276;SDS011;63149;48.086;-1.606;2023-05-19T07:00:42;17.17;;;7.10;;
39276;SDS011;63149;48.086;-1.606;2023-05-19T07:03:11;21.48;;;8.50;;
39276;SDS011;63149;48.086;-1.606;2023-05-19T07:05:38;18.60;;;8.63;;
39276;SDS011;63149;48.086;-1.606;2023-05-19T07:08:05;20.77;;;7.90;;
39276;SDS011;63149;48.086;-1.606;2023-05-19T07:10:33;13.85;;;6.57;;
39276;SDS011;63149;48.086;-1.606;2023-05-19T07:13:00;17.48;;;7.30;;
39276;SDS011;63149;48.086;-1.606;2023-05-19T07:15:28;17.50;;;8.23;;
39276;SDS011;63149;48.086;-1.606;2023-05-19T07:17:56;16.25;;;7.38;;
39276;SDS011;63149;48.086;-1.606;2023-05-19T07:20:25;14.63;;;6.40;;
39276;SDS011;63149;48.086;-1.606;2023-05-19T07:22:52;17.52;;;7.68;;
39276;SDS011;63149;48.086;-1.606;2023-05-19T07:25:20;16.13;;;6.75;;
39276;SDS011;63149;48.086;-1.606;2023-05-19T07:27:47;15.48;;;7.68;;
39276;SDS011;63149;48.086;-1.606;2023-05-19T07:30:15;19.15;;;7.72;;
39276;SDS011;63149;48.086;-1.606;2023-05-19T07:32:42;17.65;;;7.03;;
39276;SDS011;63149;48.086;-1.606;2023-05-19T07:35:09;12.07;;;6.45;;
39276;SDS011;63149;48.086;-1.606;2023-05-19T07:37:38;16.30;;;7.10;;
39276;SDS011;63149;48.086;-1.606;2023-05-19T07:40:05;16.88;;;6.53;;
39276;SDS011;63149;48.086;-1.606;2023-05-19T07:42:33;15.45;;;7.22;;
39276;SDS011;63149;48.086;-1.606;2023-05-19T07:45:00;16.02;;;7.45;;
39276;SDS011;63149;48.086;-1.606;2023-05-19T07:47:28;19.83;;;7.30;;
39276;SDS011;63149;48.086;-1.606;2023-05-19T07:49:55;18.77;;;7.43;;
39276;SDS011;63149;48.086;-1.606;2023-05-19T07:52:22;12.90;;;7.38;;
39276;SDS011;63149;48.086;-1.606;2023-05-19T07:54:51;22.05;;;7.97;;
39276;SDS011;63149;48.086;-1.606;2023-05-19T07:57:18;14.82;;;6.85;;
39276;SDS011;63149;48.086;-1.606;2023-05-19T07:59:46;17.08;;;7.68;;
39276;SDS011;63149;48.086;-1.606;2023-05-19T08:02:13;13.27;;;6.85;;
39276;SDS011;63149;48.086;-1.606;2023-05-19T08:04:40;15.70;;;7.18;;
39276;SDS011;63149;48.086;-1.606;2023-05-19T08:07:07;16.05;;;7.88;;
39276;SDS011;63149;48.086;-1.606;2023-05-19T08:09:35;14.80;;;7.60;;
39276;SDS011;63149;48.086;-1.606;2023-05-19T08:12:03;20.55;;;7.82;;
39276;SDS011;63149;48.086;-1.606;2023-05-19T08:14:31;22.15;;;8.05;;
39276;SDS011;63149;48.086;-1.606;2023-05-19T08:16:58;14.95;;;7.68;;
39276;SDS011;63149;48.086;-1.606;2023-05-19T08:19:26;14.77;;;7.53;;
39276;SDS011;63149;48.086;-1.606;2023-05-19T08:21:53;22.13;;;8.80;;
39276;SDS011;63149;48.086;-1.606;2023-05-19T08:24:21;16.85;;;7.25;;
39276;SDS011;63149;48.086;-1.606;2023-05-19T08:26:48;16.02;;;7.18;;
39276;SDS011;63149;48.086;-1.606;2023-05-19T08:29:17;12.38;;;6.05;;
39276;SDS011;63149;48.086;-1.606;2023-05-19T08:31:44;13.93;;;6.82;;
39276;SDS011;63149;48.086;-1.606;2023-05-19T08:34:11;13.45;;;6.57;;
39276;SDS011;63149;48.086;-1.606;2023-05-19T08:36:39;12.10;;;6.30;;
39276;SDS011;63149;48.086;-1.606;2023-05-19T08:39:06;15.50;;;7.32;;
39276;SDS011;63149;48.086;-1.606;2023-05-19T08:41:34;11.68;;;6.13;;
39276;SDS011;63149;48.086;-1.606;2023-05-19T08:44:01;14.30;;;6.32;;
39276;SDS011;63149;48.086;-1.606;2023-05-19T08:46:30;15.85;;;5.68;;
39276;SDS011;63149;48.086;-1.606;2023-05-19T08:48:57;11.95;;;6.95;;
39276;SDS011;63149;48.086;-1.606;2023-05-19T08:51:30;17.42;;;7.35;;
39276;SDS011;63149;48.086;-1.606;2023-05-19T08:54:02;13.50;;;7.28;;
39276;SDS011;63149;48.086;-1.606;2023-05-19T08:56:30;13.32;;;5.95;;
39276;SDS011;63149;48.086;-1.606;2023-05-19T08:58:58;9.45;;;5.20;;
39276;SDS011;63149;48.086;-1.606;2023-05-19T09:01:25;14.48;;;6.10;;
39276;SDS011;63149;48.086;-1.606;2023-05-19T09:03:55;11.55;;;5.45;;
39276;SDS011;63149;48.086;-1.606;2023-05-19T09:06:23;12.70;;;5.10;;
39276;SDS011;63149;48.086;-1.606;2023-05-19T09:08:50;12.50;;;5.03;;
39276;SDS011;63149;48.086;-1.606;2023-05-19T09:11:17;12.35;;;5.13;;
39276;SDS011;63149;48.086;-1.606;2023-05-19T09:13:46;13.68;;;4.90;;
39276;SDS011;63149;48.086;-1.606;2023-05-19T09:16:14;12.00;;;4.78;;
39276;SDS011;63149;48.086;-1.606;2023-05-19T09:18:44;12.05;;;5.18;;
39276;SDS011;63149;48.086;-1.606;2023-05-19T09:21:25;12.40;;;6.47;;
39276;SDS011;63149;48.086;-1.606;2023-05-19T09:23:54;14.98;;;6.03;;
39276;SDS011;63149;48.086;-1.606;2023-05-19T09:26:22;13.32;;;5.32;;
39276;SDS011;63149;48.086;-1.606;2023-05-19T09:28:49;10.15;;;4.80;;
39276;SDS011;63149;48.086;-1.606;2023-05-19T09:31:16;10.45;;;5.47;;
39276;SDS011;63149;48.086;-1.606;2023-05-19T09:33:44;11.27;;;5.65;;
39276;SDS011;63149;48.086;-1.606;2023-05-19T09:36:11;10.70;;;4.60;;
39276;SDS011;63149;48.086;-1.606;2023-05-19T09:38:39;9.38;;;4.70;;
39276;SDS011;63149;48.086;-1.606;2023-05-19T09:41:07;14.73;;;5.18;;
39276;SDS011;63149;48.086;-1.606;2023-05-19T09:43:34;11.48;;;5.35;;
39276;SDS011;63149;48.086;-1.606;2023-05-19T09:46:05;13.70;;;5.47;;
39276;SDS011;63149;48.086;-1.606;2023-05-19T09:51:00;11.82;;;4.45;;
39276;SDS011;63149;48.086;-1.606;2023-05-19T09:53:29;11.43;;;4.60;;
39276;SDS011;63149;48.086;-1.606;2023-05-19T09:55:59;12.50;;;5.13;;
39276;SDS011;63149;48.086;-1.606;2023-05-19T09:58:30;7.78;;;4.50;;
39276;SDS011;63149;48.086;-1.606;2023-05-19T10:00:58;14.65;;;5.03;;
39276;SDS011;63149;48.086;-1.606;2023-05-19T10:03:26;16.13;;;5.28;;
39276;SDS011;63149;48.086;-1.606;2023-05-19T10:05:54;6.57;;;4.22;;
39276;SDS011;63149;48.086;-1.606;2023-05-19T10:08:21;15.63;;;5.30;;
39276;SDS011;63149;48.086;-1.606;2023-05-19T10:10:51;11.32;;;4.55;;
39276;SDS011;63149;48.086;-1.606;2023-05-19T10:13:20;11.48;;;4.85;;
39276;SDS011;63149;48.086;-1.606;2023-05-19T10:15:47;11.70;;;4.82;;
39276;SDS011;63149;48.086;-1.606;2023-05-19T10:18:16;10.95;;;4.20;;
39276;SDS011;63149;48.086;-1.606;2023-05-19T10:20:43;14.10;;;5.03;;
39276;SDS011;63149;48.086;-1.606;2023-05-19T10:23:11;12.82;;;4.90;;
39276;SDS011;63149;48.086;-1.606;2023-05-19T10:25:39;11.55;;;4.63;;
39276;SDS011;63149;48.086;-1.606;2023-05-19T10:28:08;10.13;;;4.72;;
39276;SDS011;63149;48.086;-1.606;2023-05-19T10:30:37;7.78;;;4.30;;
39276;SDS011;63149;48.086;-1.606;2023-05-19T10:33:06;9.98;;;4.05;;
39276;SDS011;63149;48.086;-1.606;2023-05-19T10:38:23;10.18;;;3.95;;
39276;SDS011;63149;48.086;-1.606;2023-05-19T10:40:56;16.77;;;4.38;;
39276;SDS011;63149;48.086;-1.606;2023-05-19T10:43:29;11.73;;;4.97;;
39276;SDS011;63149;48.086;-1.606;2023-05-19T10:46:02;13.75;;;5.07;;
39276;SDS011;63149;48.086;-1.606;2023-05-19T10:48:31;9.82;;;4.00;;
39276;SDS011;63149;48.086;-1.606;2023-05-19T10:51:00;8.45;;;3.67;;
39276;SDS011;63149;48.086;-1.606;2023-05-19T10:53:29;13.00;;;3.85;;
39276;SDS011;63149;48.086;-1.606;2023-05-19T10:55:56;7.28;;;3.53;;
39276;SDS011;63149;48.086;-1.606;2023-05-19T10:58:37;10.18;;;3.50;;
39276;SDS011;63149;48.086;-1.606;2023-05-19T11:01:07;9.55;;;3.97;;
39276;SDS011;63149;48.086;-1.606;2023-05-19T11:03:44;12.32;;;4.32;;
39276;SDS011;63149;48.086;-1.606;2023-05-19T11:06:18;6.20;;;3.83;;
39276;SDS011;63149;48.086;-1.606;2023-05-19T11:08:46;10.35;;;3.63;;
39276;SDS011;63149;48.086;-1.606;2023-05-19T11:11:18;10.98;;;4.13;;
39276;SDS011;63149;48.086;-1.606;2023-05-19T11:13:46;6.38;;;3.67;;
39276;SDS011;63149;48.086;-1.606;2023-05-19T11:16:15;9.15;;;4.10;;
39276;SDS011;63149;48.086;-1.606;2023-05-19T11:18:46;8.45;;;4.40;;
39276;SDS011;63149;48.086;-1.606;2023-05-19T11:21:14;9.77;;;4.15;;
39276;SDS011;63149;48.086;-1.606;2023-05-19T11:23:41;10.15;;;3.83;;
39276;SDS011;63149;48.086;-1.606;2023-05-19T11:26:08;8.25;;;3.65;;
39276;SDS011;63149;48.086;-1.606;2023-05-19T11:28:35;9.20;;;4.65;;
39276;SDS011;63149;48.086;-1.606;2023-05-19T11:31:03;9.40;;;4.22;;
39276;SDS011;63149;48.086;-1.606;2023-05-19T11:33:34;8.32;;;3.78;;
39276;SDS011;63149;48.086;-1.606;2023-05-19T11:36:02;11.18;;;3.97;;
39276;SDS011;63149;48.086;-1.606;2023-05-19T11:38:30;10.88;;;3.92;;
39276;SDS011;63149;48.086;-1.606;2023-05-19T11:40:58;9.80;;;3.60;;
39276;SDS011;63149;48.086;-1.606;2023-05-19T11:43:26;9.18;;;3.65;;
39276;SDS011;63149;48.086;-1.606;2023-05-19T11:45:53;10.02;;;3.88;;
39276;SDS011;63149;48.086;-1.606;2023-05-19T11:48:21;10.50;;;4.10;;
39276;SDS011;63149;48.086;-1.606;2023-05-19T11:50:50;8.15;;;4.47;;
39276;SDS011;63149;48.086;-1.606;2023-05-19T11:53:17;6.05;;;3.53;;
39276;SDS011;63149;48.086;-1.606;2023-05-19T11:55:45;10.70;;;4.15;;
39276;SDS011;63149;48.086;-1.606;2023-05-19T11:58:12;6.70;;;3.97;;
39276;SDS011;63149;48.086;-1.606;2023-05-19T12:00:41;10.32;;;4.32;;
39276;SDS011;63149;48.086;-1.606;2023-05-19T12:03:09;5.90;;;4.15;;
39276;SDS011;63149;48.086;-1.606;2023-05-19T12:05:37;8.73;;;4.28;;
39276;SDS011;63149;48.086;-1.606;2023-05-19T12:08:07;7.30;;;3.65;;
39276;SDS011;63149;48.086;-1.606;2023-05-19T12:10:34;9.27;;;4.53;;
39276;SDS011;63149;48.086;-1.606;2023-05-19T12:13:01;9.85;;;4.00;;
39276;SDS011;63149;48.086;-1.606;2023-05-19T12:15:30;11.10;;;4.00;;
39276;SDS011;63149;48.086;-1.606;2023-05-19T12:17:58;8.65;;;3.88;;
39276;SDS011;63149;48.086;-1.606;2023-05-19T12:20:26;10.85;;;4.60;;
39276;SDS011;63149;48.086;-1.606;2023-05-19T12:22:55;9.75;;;4.32;;
39276;SDS011;63149;48.086;-1.606;2023-05-19T12:25:24;7.97;;;4.68;;
39276;SDS011;63149;48.086;-1.606;2023-05-19T12:27:55;7.43;;;4.25;;
39276;SDS011;63149;48.086;-1.606;2023-05-19T12:30:23;8.90;;;4.30;;
39276;SDS011;63149;48.086;-1.606;2023-05-19T12:32:52;12.30;;;4.22;;
39276;SDS011;63149;48.086;-1.606;2023-05-19T12:35:24;10.38;;;4.20;;
39276;SDS011;63149;48.086;-1.606;2023-05-19T12:37:51;6.47;;;3.88;;
39276;SDS011;63149;48.086;-1.606;2023-05-19T12:40:19;10.45;;;4.32;;
39276;SDS011;63149;48.086;-1.606;2023-05-19T12:42:48;9.02;;;4.38;;
39276;SDS011;63149;48.086;-1.606;2023-05-19T12:45:19;11.40;;;4.68;;
39276;SDS011;63149;48.086;-1.606;2023-05-19T12:47:47;12.52;;;4.82;;
39276;SDS011;63149;48.086;-1.606;2023-05-19T12:50:15;10.30;;;5.10;;
39276;SDS011;63149;48.086;-1.606;2023-05-19T12:52:44;9.18;;;4.20;;
39276;SDS011;63149;48.086;-1.606;2023-05-19T12:55:12;12.30;;;4.55;;
39276;SDS011;63149;48.086;-1.606;2023-05-19T12:57:41;9.80;;;4.82;;
39276;SDS011;63149;48.086;-1.606;2023-05-19T13:00:13;10.40;;;4.93;;
39276;SDS011;63149;48.086;-1.606;2023-05-19T13:02:54;7.03;;;4.55;;
39276;SDS011;63149;48.086;-1.606;2023-05-19T13:05:22;10.00;;;4.50;;
39276;SDS011;63149;48.086;-1.606;2023-05-19T13:07:55;7.47;;;4.60;;
39276;SDS011;63149;48.086;-1.606;2023-05-19T13:10:23;11.55;;;5.05;;
39276;SDS011;63149;48.086;-1.606;2023-05-19T13:12:52;11.45;;;5.25;;
39276;SDS011;63149;48.086;-1.606;2023-05-19T13:15:22;9.20;;;5.05;;
39276;SDS011;63149;48.086;-1.606;2023-05-19T13:17:50;10.77;;;5.40;;
39276;SDS011;63149;48.086;-1.606;2023-05-19T13:20:17;6.10;;;4.15;;
39276;SDS011;63149;48.086;-1.606;2023-05-19T13:22:45;9.25;;;4.55;;
39276;SDS011;63149;48.086;-1.606;2023-05-19T13:25:12;11.23;;;4.60;;
39276;SDS011;63149;48.086;-1.606;2023-05-19T13:27:40;12.93;;;5.18;;
39276;SDS011;63149;48.086;-1.606;2023-05-19T13:30:08;12.95;;;5.05;;
39276;SDS011;63149;48.086;-1.606;2023-05-19T13:32:37;10.75;;;5.25;;
39276;SDS011;63149;48.086;-1.606;2023-05-19T13:35:04;11.60;;;6.15;;
39276;SDS011;63149;48.086;-1.606;2023-05-19T13:37:32;13.18;;;6.20;;
39276;SDS011;63149;48.086;-1.606;2023-05-19T13:39:59;10.68;;;5.85;;
39276;SDS011;63149;48.086;-1.606;2023-05-19T13:42:26;10.52;;;5.95;;
39276;SDS011;63149;48.086;-1.606;2023-05-19T13:44:54;12.02;;;5.88;;
39276;SDS011;63149;48.086;-1.606;2023-05-19T13:47:21;10.30;;;5.72;;
39276;SDS011;63149;48.086;-1.606;2023-05-19T13:49:50;15.00;;;5.40;;
39276;SDS011;63149;48.086;-1.606;2023-05-19T13:52:17;12.00;;;5.97;;
39276;SDS011;63149;48.086;-1.606;2023-05-19T13:54:45;12.50;;;5.70;;
39276;SDS011;63149;48.086;-1.606;2023-05-19T13:57:12;12.93;;;5.32;;
39276;SDS011;63149;48.086;-1.606;2023-05-19T13:59:39;8.48;;;5.03;;
39276;SDS011;63149;48.086;-1.606;2023-05-19T14:02:07;12.38;;;5.50;;
39276;SDS011;63149;48.086;-1.606;2023-05-19T14:04:35;9.85;;;5.32;;
39276;SDS011;63149;48.086;-1.606;2023-05-19T14:07:04;14.13;;;6.38;;
39276;SDS011;63149;48.086;-1.606;2023-05-19T14:09:32;11.90;;;6.18;;
39276;SDS011;63149;48.086;-1.606;2023-05-19T14:11:59;12.50;;;5.22;;
39276;SDS011;63149;48.086;-1.606;2023-05-19T14:14:28;11.88;;;5.70;;
39276;SDS011;63149;48.086;-1.606;2023-05-19T14:16:55;12.60;;;6.68;;
39276;SDS011;63149;48.086;-1.606;2023-05-19T14:19:22;11.15;;;5.60;;
39276;SDS011;63149;48.086;-1.606;2023-05-19T14:24:22;12.63;;;5.57;;
39276;SDS011;63149;48.086;-1.606;2023-05-19T14:26:49;13.05;;;5.78;;
39276;SDS011;63149;48.086;-1.606;2023-05-19T14:29:17;9.88;;;5.82;;
39276;SDS011;63149;48.086;-1.606;2023-05-19T14:31:44;15.90;;;7.45;;
39276;SDS011;63149;48.086;-1.606;2023-05-19T14:34:11;11.27;;;5.78;;
39276;SDS011;63149;48.086;-1.606;2023-05-19T14:36:41;15.88;;;6.18;;
39276;SDS011;63149;48.086;-1.606;2023-05-19T14:39:09;15.75;;;6.20;;
39276;SDS011;63149;48.086;-1.606;2023-05-19T14:41:38;16.33;;;6.57;;
39276;SDS011;63149;48.086;-1.606;2023-05-19T14:44:05;16.52;;;5.72;;
39276;SDS011;63149;48.086;-1.606;2023-05-19T14:46:32;14.32;;;6.55;;
39276;SDS011;63149;48.086;-1.606;2023-05-19T14:49:00;9.55;;;5.47;;
39276;SDS011;63149;48.086;-1.606;2023-05-19T14:51:27;8.57;;;4.90;;
39276;SDS011;63149;48.086;-1.606;2023-05-19T14:53:55;12.25;;;6.95;;
39276;SDS011;63149;48.086;-1.606;2023-05-19T14:56:22;13.48;;;6.13;;
39276;SDS011;63149;48.086;-1.606;2023-05-19T14:58:51;14.32;;;5.47;;
39276;SDS011;63149;48.086;-1.606;2023-05-19T15:01:18;13.60;;;6.05;;
39276;SDS011;63149;48.086;-1.606;2023-05-19T15:03:46;11.23;;;6.18;;
39276;SDS011;63149;48.086;-1.606;2023-05-19T15:06:13;15.80;;;6.25;;
39276;SDS011;63149;48.086;-1.606;2023-05-19T15:08:40;12.80;;;5.93;;
39276;SDS011;63149;48.086;-1.606;2023-05-19T15:11:07;9.20;;;5.38;;
39276;SDS011;63149;48.086;-1.606;2023-05-19T15:13:35;14.10;;;5.60;;
39276;SDS011;63149;48.086;-1.606;2023-05-19T15:16:03;12.52;;;5.75;;
39276;SDS011;63149;48.086;-1.606;2023-05-19T15:18:34;13.23;;;5.05;;
39276;SDS011;63149;48.086;-1.606;2023-05-19T15:21:01;11.05;;;5.15;;
39276;SDS011;63149;48.086;-1.606;2023-05-19T15:23:28;9.48;;;5.60;;
39276;SDS011;63149;48.086;-1.606;2023-05-19T15:25:55;9.20;;;4.43;;
39276;SDS011;63149;48.086;-1.606;2023-05-19T15:28:23;8.90;;;4.28;;
39276;SDS011;63149;48.086;-1.606;2023-05-19T15:30:50;12.20;;;4.80;;
39276;SDS011;63149;48.086;-1.606;2023-05-19T15:33:19;9.38;;;4.45;;
39276;SDS011;63149;48.086;-1.606;2023-05-19T15:35:46;12.00;;;5.45;;
39276;SDS011;63149;48.086;-1.606;2023-05-19T15:38:15;10.40;;;4.80;;
39276;SDS011;63149;48.086;-1.606;2023-05-19T15:40:43;10.55;;;5.47;;
39276;SDS011;63149;48.086;-1.606;2023-05-19T15:43:10;8.88;;;4.93;;
39276;SDS011;63149;48.086;-1.606;2023-05-19T15:45:37;12.30;;;4.43;;
39276;SDS011;63149;48.086;-1.606;2023-05-19T15:48:05;8.98;;;4.53;;
39276;SDS011;63149;48.086;-1.606;2023-05-19T15:50:33;10.30;;;4.80;;
39276;SDS011;63149;48.086;-1.606;2023-05-19T15:53:01;12.52;;;4.93;;
39276;SDS011;63149;48.086;-1.606;2023-05-19T15:55:29;8.40;;;4.90;;
39276;SDS011;63149;48.086;-1.606;2023-05-19T15:57:56;8.02;;;4.35;;
39276;SDS011;63149;48.086;-1.606;2023-05-19T16:00:23;9.35;;;4.10;;
39276;SDS011;63149;48.086;-1.606;2023-05-19T16:02:50;7.50;;;4.10;;
39276;SDS011;63149;48.086;-1.606;2023-05-19T16:05:18;9.35;;;4.28;;
39276;SDS011;63149;48.086;-1.606;2023-05-19T16:07:46;14.68;;;5.30;;
39276;SDS011;63149;48.086;-1.606;2023-05-19T16:10:14;7.13;;;3.97;;
39276;SDS011;63149;48.086;-1.606;2023-05-19T16:12:41;8.15;;;4.25;;
39276;SDS011;63149;48.086;-1.606;2023-05-19T16:15:08;10.43;;;3.97;;
39276;SDS011;63149;48.086;-1.606;2023-05-19T16:17:36;8.98;;;4.15;;
39276;SDS011;63149;48.086;-1.606;2023-05-19T16:20:03;9.75;;;3.72;;
39276;SDS011;63149;48.086;-1.606;2023-05-19T16:22:31;10.50;;;4.32;;
39276;SDS011;63149;48.086;-1.606;2023-05-19T16:25:00;7.72;;;3.92;;
39276;SDS011;63149;48.086;-1.606;2023-05-19T16:27:27;7.55;;;4.20;;
39276;SDS011;63149;48.086;-1.606;2023-05-19T16:29:54;10.40;;;4.07;;
39276;SDS011;63149;48.086;-1.606;2023-05-19T16:32:21;9.05;;;4.18;;
39276;SDS011;63149;48.086;-1.606;2023-05-19T16:34:48;6.63;;;3.65;;
39276;SDS011;63149;48.086;-1.606;2023-05-19T16:37:16;6.88;;;3.90;;
39276;SDS011;63149;48.086;-1.606;2023-05-19T16:39:43;10.15;;;3.90;;
39276;SDS011;63149;48.086;-1.606;2023-05-19T16:42:13;8.32;;;3.70;;
39276;SDS011;63149;48.086;-1.606;2023-05-19T16:44:40;10.70;;;4.13;;
39276;SDS011;63149;48.086;-1.606;2023-05-19T16:47:08;7.93;;;3.97;;
39276;SDS011;63149;48.086;-1.606;2023-05-19T16:49:35;8.38;;;4.32;;
39276;SDS011;63149;48.086;-1.606;2023-05-19T16:52:04;8.63;;;3.33;;
39276;SDS011;63149;48.086;-1.606;2023-05-19T16:54:31;7.10;;;4.03;;
39276;SDS011;63149;48.086;-1.606;2023-05-19T16:56:59;5.88;;;3.40;;
39276;SDS011;63149;48.086;-1.606;2023-05-19T16:59:27;9.80;;;3.97;;
39276;SDS011;63149;48.086;-1.606;2023-05-19T17:01:55;8.88;;;4.15;;
39276;SDS011;63149;48.086;-1.606;2023-05-19T17:04:22;9.20;;;4.07;;
39276;SDS011;63149;48.086;-1.606;2023-05-19T17:06:49;6.95;;;3.47;;
39276;SDS011;63149;48.086;-1.606;2023-05-19T17:09:16;7.82;;;3.72;;
39276;SDS011;63149;48.086;-1.606;2023-05-19T17:11:49;8.15;;;3.88;;
39276;SDS011;63149;48.086;-1.606;2023-05-19T17:14:16;8.90;;;4.03;;
39276;SDS011;63149;48.086;-1.606;2023-05-19T17:16:45;9.88;;;4.40;;
39276;SDS011;63149;48.086;-1.606;2023-05-19T17:19:12;8.57;;;3.75;;
39276;SDS011;63149;48.086;-1.606;2023-05-19T17:21:40;8.88;;;4.25;;
39276;SDS011;63149;48.086;-1.606;2023-05-19T17:24:07;10.57;;;5.03;;
39276;SDS011;63149;48.086;-1.606;2023-05-19T17:26:35;6.90;;;3.45;;
39276;SDS011;63149;48.086;-1.606;2023-05-19T17:29:02;11.60;;;3.90;;
39276;SDS011;63149;48.086;-1.606;2023-05-19T17:31:29;7.15;;;3.78;;
39276;SDS011;63149;48.086;-1.606;2023-05-19T17:33:58;8.77;;;3.70;;
39276;SDS011;63149;48.086;-1.606;2023-05-19T17:36:25;7.15;;;3.83;;
39276;SDS011;63149;48.086;-1.606;2023-05-19T17:38:52;13.27;;;4.22;;
39276;SDS011;63149;48.086;-1.606;2023-05-19T17:41:20;8.45;;;3.90;;
39276;SDS011;63149;48.086;-1.606;2023-05-19T17:43:47;6.22;;;3.90;;
39276;SDS011;63149;48.086;-1.606;2023-05-19T17:46:14;4.80;;;3.67;;
39276;SDS011;63149;48.086;-1.606;2023-05-19T17:48:41;13.15;;;4.28;;
39276;SDS011;63149;48.086;-1.606;2023-05-19T17:51:10;8.30;;;4.18;;
39276;SDS011;63149;48.086;-1.606;2023-05-19T17:53:37;9.02;;;4.20;;
39276;SDS011;63149;48.086;-1.606;2023-05-19T17:56:05;9.32;;;4.18;;
39276;SDS011;63149;48.086;-1.606;2023-05-19T17:58:35;10.98;;;4.07;;
39276;SDS011;63149;48.086;-1.606;2023-05-19T18:01:02;9.82;;;4.03;;
39276;SDS011;63149;48.086;-1.606;2023-05-19T18:03:30;14.48;;;5.03;;
39276;SDS011;63149;48.086;-1.606;2023-05-19T18:05:57;12.43;;;5.30;;
39276;SDS011;63149;48.086;-1.606;2023-05-19T18:08:26;12.30;;;4.45;;
39276;SDS011;63149;48.086;-1.606;2023-05-19T18:10:54;9.90;;;5.18;;
39276;SDS011;63149;48.086;-1.606;2023-05-19T18:13:21;9.60;;;4.25;;
39276;SDS011;63149;48.086;-1.606;2023-05-19T18:15:50;13.77;;;4.93;;
39276;SDS011;63149;48.086;-1.606;2023-05-19T18:18:17;7.00;;;4.18;;
39276;SDS011;63149;48.086;-1.606;2023-05-19T18:20:44;13.80;;;6.40;;
39276;SDS011;63149;48.086;-1.606;2023-05-19T18:23:12;15.48;;;7.88;;
39276;SDS011;63149;48.086;-1.606;2023-05-19T18:25:40;26.88;;;12.30;;
39276;SDS011;63149;48.086;-1.606;2023-05-19T18:28:14;17.48;;;9.32;;
39276;SDS011;63149;48.086;-1.606;2023-05-19T18:30:41;14.27;;;8.68;;
39276;SDS011;63149;48.086;-1.606;2023-05-19T18:33:09;17.83;;;8.68;;
39276;SDS011;63149;48.086;-1.606;2023-05-19T18:35:36;10.48;;;6.47;;
39276;SDS011;63149;48.086;-1.606;2023-05-19T18:38:03;9.50;;;4.55;;
39276;SDS011;63149;48.086;-1.606;2023-05-19T18:40:30;9.52;;;4.38;;
39276;SDS011;63149;48.086;-1.606;2023-05-19T18:42:59;10.85;;;4.28;;
39276;SDS011;63149;48.086;-1.606;2023-05-19T18:45:26;9.73;;;4.28;;
39276;SDS011;63149;48.086;-1.606;2023-05-19T18:47:53;8.73;;;4.13;;
39276;SDS011;63149;48.086;-1.606;2023-05-19T18:50:21;7.13;;;3.90;;
39276;SDS011;63149;48.086;-1.606;2023-05-19T18:52:48;9.32;;;3.88;;
39276;SDS011;63149;48.086;-1.606;2023-05-19T18:55:15;7.28;;;3.72;;
39276;SDS011;63149;48.086;-1.606;2023-05-19T18:57:42;7.93;;;3.70;;
39276;SDS011;63149;48.086;-1.606;2023-05-19T19:00:12;7.15;;;4.25;;
39276;SDS011;63149;48.086;-1.606;2023-05-19T19:02:39;5.45;;;3.30;;
39276;SDS011;63149;48.086;-1.606;2023-05-19T19:05:07;6.38;;;3.63;;
39276;SDS011;63149;48.086;-1.606;2023-05-19T19:07:37;7.78;;;3.75;;
39276;SDS011;63149;48.086;-1.606;2023-05-19T19:10:05;5.55;;;3.33;;
39276;SDS011;63149;48.086;-1.606;2023-05-19T19:12:32;5.13;;;3.20;;
39276;SDS011;63149;48.086;-1.606;2023-05-19T19:15:00;7.13;;;3.40;;
39276;SDS011;63149;48.086;-1.606;2023-05-19T19:17:29;7.15;;;3.05;;
39276;SDS011;63149;48.086;-1.606;2023-05-19T19:19:56;8.07;;;3.55;;
39276;SDS011;63149;48.086;-1.606;2023-05-19T19:22:23;6.47;;;2.95;;
39276;SDS011;63149;48.086;-1.606;2023-05-19T19:24:51;6.88;;;3.25;;
39276;SDS011;63149;48.086;-1.606;2023-05-19T19:27:18;6.30;;;2.90;;
39276;SDS011;63149;48.086;-1.606;2023-05-19T19:29:45;6.65;;;3.15;;
39276;SDS011;63149;48.086;-1.606;2023-05-19T19:32:12;5.53;;;3.50;;
39276;SDS011;63149;48.086;-1.606;2023-05-19T19:34:41;7.15;;;3.53;;
39276;SDS011;63149;48.086;-1.606;2023-05-19T19:37:08;8.82;;;3.85;;
39276;SDS011;63149;48.086;-1.606;2023-05-19T19:39:35;8.20;;;3.35;;